Terminal Aerodrome Forecast
Issued by NWS Burlington, VT

Home | Current Version | Previous Version | Text Only | Print | Product List | Glossary On
Versions: 1 2 3 4 5 6 7 8 9 10 11 12 13 14 15 16 17
000
FTUS41 KBTV 190528
TAFBTV
TAF
KBTV 190528Z 1906/2006 20006KT P6SM VCSH SCT015 OVC035
      TEMPO 1906/1910 OVC009
     FM191000 VRB03KT 6SM BR OVC010
     FM191500 26005KT P6SM OVC025
     FM200000 34004KT P6SM OVC020=

USA.gov is the U.S. government's official web portal to all federal, state and local government web resources and services.